Time;durP1;ratioP1;P1;durP2;ratioP2;P2;SDS_P1;SDS_P2;PMS_P1;PMS_P2;Temp;Humidity;BMP_temperature;BMP_pressure;BME280_temperature;BME280_humidity;BME280_pressure;Samples;Min_cycle;Max_cycle;Signal;HPM_P1;HPM_P2
2022/09/10 00:00:36;;;;;;;15.27;6.57;;;;;;;13.59;100.00;100771.06;4987986;30;20031;-74
2022/09/10 00:03:09;;;;;;;12.13;6.30;;;;;;;13.58;100.00;100764.94;4987399;30;20043;-74
2022/09/10 00:05:45;;;;;;;14.70;6.30;;;;;;;13.59;100.00;100765.84;4987351;30;20050;-74
2022/09/10 00:08:17;;;;;;;10.10;6.00;;;;;;;13.60;100.00;100767.53;4987155;30;20051;-74
2022/09/10 00:10:50;;;;;;;12.35;6.75;;;;;;;13.62;100.00;100766.59;4987709;30;20092;-73
2022/09/10 00:13:22;;;;;;;18.80;7.30;;;;;;;13.63;100.00;100762.22;4987375;30;20032;-73
2022/09/10 00:15:53;;;;;;;12.73;6.63;;;;;;;13.60;100.00;100760.53;4987328;30;20101;-74
2022/09/10 00:18:25;;;;;;;15.33;7.23;;;;;;;13.57;100.00;100746.66;4986970;30;20110;-73
2022/09/10 00:20:58;;;;;;;15.00;6.80;;;;;;;13.57;100.00;100747.53;4986705;30;20061;-73
2022/09/10 00:23:30;;;;;;;14.20;6.50;;;;;;;13.57;100.00;100757.13;4987431;30;20464;-73
2022/09/10 00:26:10;;;;;;;15.23;6.07;;;;;;;13.54;100.00;100752.84;4987599;30;20042;-74
2022/09/10 00:28:42;;;;;;;12.48;5.93;;;;;;;13.54;100.00;100749.34;4986955;30;20064;-73
2022/09/10 00:31:14;;;;;;;14.13;7.50;;;;;;;13.56;100.00;100755.44;4986777;30;20031;-73
2022/09/10 00:33:46;;;;;;;17.67;6.63;;;;;;;13.54;100.00;100758.09;4986828;30;20456;-73
2022/09/10 00:36:23;;;;;;;13.77;6.18;;;;;;;13.55;100.00;100753.69;4986633;30;20043;-74
2022/09/10 00:38:58;;;;;;;15.68;6.88;;;;;;;13.51;100.00;100750.31;4986962;30;20038;-74
2022/09/10 00:41:30;;;;;;;11.90;6.13;;;;;;;13.52;100.00;100756.41;4970196;30;20074;-74
2022/09/10 00:44:04;;;;;;;13.70;7.07;;;;;;;13.52;100.00;100753.78;4986776;30;20448;-74
2022/09/10 00:46:58;;;;;;;14.90;6.53;;;;;;;13.52;100.00;100759.00;4970472;30;20042;-73
2022/09/10 00:49:36;;;;;;;14.98;6.63;;;;;;;13.55;100.00;100759.78;4986477;30;20126;-74
2022/09/10 00:52:08;;;;;;;20.42;6.88;;;;;;;13.49;100.00;100755.59;4986903;30;20066;-74
2022/09/10 00:54:41;;;;;;;15.60;6.97;;;;;;;13.53;100.00;100752.88;4986155;30;20071;-74
2022/09/10 00:57:21;;;;;;;12.77;6.43;;;;;;;13.53;100.00;100751.13;4986159;30;20035;-74
2022/09/10 01:00:04;;;;;;;13.45;6.70;;;;;;;13.51;100.00;100752.94;4986378;30;20031;-74
2022/09/10 01:02:35;;;;;;;16.33;7.47;;;;;;;13.56;100.00;100765.91;4986238;30;20177;-74
2022/09/10 01:05:08;;;;;;;15.77;7.40;;;;;;;13.59;100.00;100768.44;4985701;29;20126;-74
2022/09/10 01:07:39;;;;;;;;;;;;;;;13.59;100.00;100761.44;4986713;30;20075;-74
2022/09/10 01:10:16;;;;;;;18.73;7.03;;;;;;;13.65;100.00;100773.50;4986131;30;20011;-73
2022/09/10 01:13:06;;;;;;;15.85;7.80;;;;;;;13.70;100.00;100776.00;4986846;30;20368;-73
2022/09/10 01:16:01;;;;;;;14.05;7.45;;;;;;;13.75;100.00;100768.88;4986220;30;20047;-74
2022/09/10 01:19:06;;;;;;;13.50;7.80;;;;;;;13.76;100.00;100771.47;4970505;30;20038;-74
2022/09/10 01:22:01;;;;;;;13.85;7.65;;;;;;;13.77;100.00;100765.34;4986150;30;20054;-74
2022/09/10 01:24:41;;;;;;;15.40;8.43;;;;;;;13.82;100.00;100765.22;4986489;30;20027;-74
2022/09/10 01:27:27;;;;;;;15.13;7.65;;;;;;;13.82;100.00;100768.69;4970442;30;20088;-74
2022/09/10 01:30:04;;;;;;;25.33;8.48;;;;;;;13.82;100.00;100773.94;4986265;30;20098;-74
2022/09/10 01:32:54;;;;;;;16.88;8.32;;;;;;;13.83;100.00;100770.41;4985987;30;20039;-74
2022/09/10 01:35:32;;;;;;;20.20;10.25;;;;;;;13.86;100.00;100761.59;4986128;30;20054;-75
2022/09/10 01:38:10;;;;;;;18.55;8.68;;;;;;;13.87;100.00;100771.19;4985749;30;20491;-74
2022/09/10 01:40:43;;;;;;;17.73;8.50;;;;;;;13.85;100.00;100758.13;4985936;30;20058;-74
2022/09/10 01:43:14;;;;;;;15.82;9.55;;;;;;;13.86;100.00;100765.09;4985907;30;20039;-74
2022/09/10 01:46:07;;;;;;;17.27;8.90;;;;;;;13.89;100.00;100769.38;4985546;30;20054;-74
2022/09/10 01:48:59;;;;;;;21.35;10.98;;;;;;;13.88;100.00;100764.19;4986080;30;20031;-74
2022/09/10 01:51:50;;;;;;;15.35;9.50;;;;;;;13.91;100.00;100767.59;4986476;30;20352;-73
2022/09/10 01:54:49;;;;;;;20.88;10.43;;;;;;;13.93;100.00;100771.03;4985994;30;20376;-73
2022/09/10 01:57:49;;;;;;;18.77;9.60;;;;;;;13.96;100.00;100762.22;4985968;30;20448;-74
2022/09/10 02:00:23;;;;;;;17.70;10.25;;;;;;;13.92;100.00;100756.19;4986280;30;20452;-75
2022/09/10 02:03:03;;;;;;;19.95;10.27;;;;;;;13.92;100.00;100768.44;4985764;30;20035;-73
2022/09/10 02:05:37;;;;;;;21.10;10.43;;;;;;;13.91;100.00;100757.13;4985969;30;20491;-74
2022/09/10 02:08:15;;;;;;;20.13;10.57;;;;;;;13.93;100.00;100762.31;4985643;30;20062;-73
2022/09/10 02:10:59;;;;;;;19.35;10.50;;;;;;;13.91;100.00;100764.09;4985816;30;20036;-74
2022/09/10 02:13:33;;;;;;;20.17;11.35;;;;;;;13.93;100.00;100751.84;4986585;30;20471;-74
2022/09/10 02:16:08;;;;;;;22.05;12.07;;;;;;;13.91;100.00;100751.00;4986447;29;20039;-73
2022/09/10 02:18:41;;;;;;;19.35;11.38;;;;;;;13.94;100.00;100753.53;4989373;30;20031;-74
2022/09/10 02:21:14;;;;;;;19.90;12.10;;;;;;;13.96;100.00;100755.22;4989026;30;20488;-74
2022/09/10 02:23:49;;;;;;;21.92;11.70;;;;;;;13.97;100.00;100743.81;4989472;30;20055;-74
2022/09/10 02:26:21;;;;;;;31.77;14.82;;;;;;;13.99;100.00;100743.78;4989457;30;20036;-72
2022/09/10 02:28:53;;;;;;;25.33;13.57;;;;;;;13.97;100.00;100746.44;4972705;30;20043;-73
2022/09/10 02:31:25;;;;;;;36.60;14.65;;;;;;;13.95;100.00;100743.00;4989175;30;20073;-73
2022/09/10 02:33:56;;;;;;;27.67;15.30;;;;;;;13.96;100.00;100747.38;4989361;30;20537;-73
2022/09/10 02:36:27;;;;;;;24.97;13.77;;;;;;;13.92;100.00;100742.25;4989286;30;20042;-73
2022/09/10 02:39:01;;;;;;;27.97;14.57;;;;;;;13.94;100.00;100749.19;4988818;30;20046;-73
2022/09/10 02:41:34;;;;;;;33.47;15.73;;;;;;;13.93;100.00;100749.22;4988748;30;20518;-73
2022/09/10 02:44:05;;;;;;;24.23;15.45;;;;;;;13.91;100.00;100738.78;4988651;30;20039;-73
2022/09/10 02:46:37;;;;;;;29.17;15.20;;;;;;;13.92;100.00;100748.34;4988854;30;20491;-73
2022/09/10 02:49:08;;;;;;;26.23;14.83;;;;;;;13.91;100.00;100737.91;4988559;30;20050;-73
2022/09/10 02:51:43;;;;;;;26.77;16.53;;;;;;;13.89;100.00;100740.56;4988566;30;20122;-73
2022/09/10 02:54:15;;;;;;;29.80;17.15;;;;;;;13.92;100.00;100742.25;4988142;30;20043;-73
2022/09/10 02:56:49;;;;;;;31.20;16.55;;;;;;;13.88;100.00;100736.25;4972501;30;20062;-74
2022/09/10 02:59:22;;;;;;;28.70;17.33;;;;;;;13.93;100.00;100746.59;4988414;30;20051;-74
2022/09/10 03:01:55;;;;;;;30.42;17.15;;;;;;;13.92;100.00;100745.72;4972438;30;20093;-73
2022/09/10 03:04:26;;;;;;;26.13;17.13;;;;;;;13.93;100.00;100738.75;4988535;30;20233;-73
2022/09/10 03:06:57;;;;;;;33.17;17.50;;;;;;;13.94;100.00;100738.69;4988333;30;20114;-72
2022/09/10 03:09:29;;;;;;;30.40;17.10;;;;;;;13.96;100.00;100742.13;4988494;30;20085;-73
2022/09/10 03:12:01;;;;;;;28.10;17.17;;;;;;;13.95;100.00;100753.50;4988157;30;20043;-71
2022/09/10 03:14:33;;;;;;;25.13;16.57;;;;;;;13.96;100.00;100749.09;4988104;30;20403;-73
2022/09/10 03:17:05;;;;;;;33.00;17.55;;;;;;;13.96;100.00;100746.47;4988126;30;20765;-73
2022/09/10 03:19:36;;;;;;;34.58;18.38;;;;;;;13.97;100.00;100746.44;4988461;30;20611;-73
2022/09/10 03:22:07;;;;;;;32.20;17.80;;;;;;;13.99;100.00;100747.28;4988194;30;20141;-72
2022/09/10 03:24:39;;;;;;;35.27;18.00;;;;;;;14.00;100.00;100750.75;4988348;30;20066;-72
2022/09/10 03:27:10;;;;;;;33.43;17.67;;;;;;;13.97;100.00;100742.97;4987985;30;20046;-70
2022/09/10 03:29:42;;;;;;;30.10;18.73;;;;;;;13.99;100.00;100741.16;4987680;29;20039;-72
2022/09/10 03:32:13;;;;;;;37.13;18.47;;;;;;;14.00;100.00;100745.50;4988153;30;20108;-71
2022/09/10 03:34:44;;;;;;;28.77;18.40;;;;;;;13.98;100.00;100742.94;4987910;30;20042;-72
2022/09/10 03:37:16;;;;;;;33.97;18.53;;;;;;;14.03;100.00;100743.66;4988016;30;20043;-72
2022/09/10 03:39:48;;;;;;;32.97;19.87;;;;;;;14.01;100.00;100742.84;4987795;30;20032;-72
2022/09/10 03:42:19;;;;;;;34.42;21.42;;;;;;;14.03;100.00;100737.56;4972360;30;20444;-72
2022/09/10 03:44:51;;;;;;;46.47;22.73;;;;;;;14.00;100.00;100733.25;4987618;30;20043;-72
2022/09/10 03:47:22;;;;;;;44.10;24.03;;;;;;;14.02;100.00;100741.09;4987353;30;20031;-71
2022/09/10 03:49:55;;;;;;;33.80;21.57;;;;;;;13.96;100.00;100739.50;4987939;30;20031;-71
2022/09/10 03:52:26;;;;;;;39.88;23.27;;;;;;;14.01;100.00;100742.84;4987803;30;20109;-73
2022/09/10 03:54:58;;;;;;;33.23;23.23;;;;;;;14.00;100.00;100735.03;4988103;30;20039;-72
2022/09/10 03:57:29;;;;;;;43.47;24.53;;;;;;;14.00;100.00;100735.88;4987428;30;20129;-71
2022/09/10 04:00:01;;;;;;;39.40;23.70;;;;;;;13.98;100.00;100731.59;4987400;30;20047;-72
2022/09/10 04:02:32;;;;;;;38.40;23.70;;;;;;;14.00;100.00;100738.50;4987409;30;20433;-73
2022/09/10 04:05:04;;;;;;;43.87;25.23;;;;;;;13.98;100.00;100729.81;4987394;30;20122;-72
2022/09/10 04:07:36;;;;;;;44.85;23.95;;;;;;;14.00;100.00;100730.63;4971096;30;20051;-73
2022/09/10 04:10:07;;;;;;;45.77;25.77;;;;;;;14.03;100.00;100729.69;4971207;30;20111;-73
2022/09/10 04:12:39;;;;;;;36.50;23.43;;;;;;;14.01;100.00;100732.38;4987118;30;20040;-72
2022/09/10 04:15:12;;;;;;;37.03;22.77;;;;;;;13.97;100.00;100720.25;4987382;30;20126;-73
2022/09/10 04:17:45;;;;;;;40.70;24.33;;;;;;;14.00;100.00;100729.78;4986941;30;20373;-72
2022/09/10 04:20:26;;;;;;;40.85;23.50;;;;;;;14.00;100.00;100722.78;4986935;30;20369;-72
2022/09/10 04:22:57;;;;;;;36.28;22.67;;;;;;;13.99;100.00;100728.06;4987246;29;20059;-72
2022/09/10 04:25:29;;;;;;;48.40;25.77;;;;;;;14.01;100.00;100719.25;4986943;30;20118;-72
2022/09/10 04:28:00;;;;;;;40.47;23.30;;;;;;;14.01;100.00;100724.50;4987133;30;20456;-72
2022/09/10 04:30:32;;;;;;;45.83;25.43;;;;;;;14.00;100.00;100719.31;4987503;30;20475;-72
2022/09/10 04:33:03;;;;;;;47.13;26.20;;;;;;;14.03;100.00;100729.69;4987179;30;20456;-72
2022/09/10 04:35:35;;;;;;;60.03;26.93;;;;;;;14.00;100.00;100708.81;4986728;30;20031;-72
2022/09/10 04:38:07;;;;;;;37.77;24.67;;;;;;;13.99;100.00;100723.69;4986553;30;20071;-72
2022/09/10 04:40:38;;;;;;;40.92;25.75;;;;;;;13.97;100.00;100716.75;4986538;29;20122;-72
2022/09/10 04:43:10;;;;;;;43.03;24.20;;;;;;;13.97;100.00;100725.47;4970770;30;20036;-72
2022/09/10 04:45:42;;;;;;;44.55;24.25;;;;;;;13.97;100.00;100729.88;4986606;30;20127;-72
2022/09/10 04:48:13;;;;;;;49.90;26.63;;;;;;;14.01;100.00;100726.28;4987099;30;20047;-72
2022/09/10 04:50:45;;;;;;;42.87;25.90;;;;;;;13.99;100.00;100733.31;4986477;30;20047;-72
2022/09/10 04:53:17;;;;;;;45.70;26.90;;;;;;;13.99;100.00;100728.06;4986770;30;20485;-72
2022/09/10 04:55:51;;;;;;;50.38;28.52;;;;;;;14.00;100.00;100729.78;4970110;30;20050;-73
2022/09/10 04:58:22;;;;;;;51.97;27.42;;;;;;;14.01;100.00;100731.53;4986598;30;20070;-72
2022/09/10 05:00:55;;;;;;;41.53;25.53;;;;;;;13.98;100.00;100731.59;4986594;30;20063;-72
2022/09/10 05:03:27;;;;;;;40.72;25.75;;;;;;;13.99;100.00;100734.19;4986282;30;20039;-71
2022/09/10 05:05:58;;;;;;;42.20;24.13;;;;;;;13.97;100.00;100737.72;4969720;30;20058;-72
2022/09/10 05:08:30;;;;;;;46.63;27.40;;;;;;;14.00;100.00;100729.78;4986343;30;20045;-71
2022/09/10 05:11:01;;;;;;;39.08;27.20;;;;;;;14.02;100.00;100738.47;4986252;30;20035;-71
2022/09/10 05:13:33;;;;;;;50.50;27.80;;;;;;;14.03;100.00;100745.44;4986200;30;20045;-70
2022/09/10 05:16:04;;;;;;;46.00;26.87;;;;;;;14.03;100.00;100737.56;4986189;30;20035;-71
2022/09/10 05:18:36;;;;;;;50.07;29.37;;;;;;;14.04;100.00;100729.66;4969862;30;20071;-70
2022/09/10 05:21:08;;;;;;;46.47;27.20;;;;;;;14.03;100.00;100735.78;4985747;30;20086;-69
2022/09/10 05:23:40;;;;;;;50.17;29.15;;;;;;;14.07;100.00;100722.59;4985545;30;20297;-71
2022/09/10 05:26:12;;;;;;;49.20;27.42;;;;;;;14.07;100.00;100736.59;4969687;30;20337;-70
2022/09/10 05:28:43;;;;;;;42.47;27.77;;;;;;;14.08;100.00;100738.28;4986222;30;20039;-72
2022/09/10 05:31:16;;;;;;;43.37;28.63;;;;;;;14.13;100.00;100736.41;4985807;30;20042;-71
2022/09/10 05:33:47;;;;;;;46.13;29.13;;;;;;;14.10;100.00;100722.53;4986116;30;20043;-71
2022/09/10 05:36:18;;;;;;;47.13;30.77;;;;;;;14.12;100.00;100739.06;4969584;30;20040;-71
2022/09/10 05:38:50;;;;;;;50.20;27.90;;;;;;;14.11;100.00;100732.97;4985452;30;20032;-71
2022/09/10 05:41:22;;;;;;;49.23;28.53;;;;;;;14.14;100.00;100732.88;4985872;30;20039;-71
2022/09/10 05:43:54;;;;;;;54.10;31.65;;;;;;;14.17;100.00;100738.03;4985965;30;20444;-71
2022/09/10 05:46:29;;;;;;;44.70;30.20;;;;;;;14.20;100.00;100743.19;4969915;30;20042;-73
2022/09/10 05:49:01;;;;;;;48.58;32.25;;;;;;;14.22;100.00;100733.53;4985462;30;20058;-71
2022/09/10 05:51:33;;;;;;;49.93;32.73;;;;;;;14.28;100.00;100742.09;4986948;29;20071;-71
2022/09/10 05:54:04;;;;;;;50.25;31.95;;;;;;;14.24;100.00;100733.47;4972540;30;20480;-72
2022/09/10 05:56:36;;;;;;;41.87;30.23;;;;;;;14.25;100.00;100745.69;4972769;30;20039;-71
2022/09/10 05:59:09;;;;;;;49.77;33.07;;;;;;;14.21;100.00;100739.66;4988802;30;20063;-70
2022/09/10 06:01:40;;;;;;;49.30;30.52;;;;;;;14.25;100.00;100739.56;4988806;30;20055;-70
2022/09/10 06:04:12;;;;;;;48.57;31.40;;;;;;;14.25;100.00;100748.31;4972391;30;20086;-72
2022/09/10 06:06:44;;;;;;;47.70;30.67;;;;;;;14.25;100.00;100739.56;4988987;30;20055;-72
2022/09/10 06:09:16;;;;;;;48.22;30.60;;;;;;;14.29;100.00;100746.47;4988673;30;20043;-72
2022/09/10 06:11:48;;;;;;;46.37;30.37;;;;;;;14.26;100.00;100742.16;4972989;30;20475;-72
2022/09/10 06:14:19;;;;;;;45.60;29.08;;;;;;;14.26;100.00;100742.16;4988654;30;20035;-72
2022/09/10 06:16:53;;;;;;;39.00;28.53;;;;;;;14.31;100.00;100745.53;4988545;30;20053;-73
2022/09/10 06:19:24;;;;;;;40.75;29.35;;;;;;;14.28;100.00;100744.72;4988427;30;20441;-72
2022/09/10 06:21:56;;;;;;;42.90;29.40;;;;;;;14.29;100.00;100749.06;4988487;30;20146;-71
2022/09/10 06:24:27;;;;;;;43.57;30.93;;;;;;;14.23;100.00;100743.13;4988822;30;20070;-72
2022/09/10 06:26:59;;;;;;;42.43;30.90;;;;;;;14.26;100.00;100741.31;4972801;30;20085;-72
2022/09/10 06:29:32;;;;;;;44.93;31.97;;;;;;;14.26;100.00;100747.38;4988590;30;20049;-72
2022/09/10 06:32:03;;;;;;;;;;;;;;;14.29;100.00;100747.31;4989155;30;20035;-72
2022/09/10 06:34:34;;;;;;;49.58;32.63;;;;;;;14.29;100.00;100754.31;4988307;30;19929;-73
2022/09/10 06:37:06;;;;;;;44.30;32.70;;;;;;;14.28;100.00;100758.72;4988394;30;20039;-74
2022/09/10 06:39:37;;;;;;;46.97;34.47;;;;;;;14.28;100.00;100758.72;4972268;30;20039;-72
2022/09/10 06:42:08;;;;;;;53.90;34.27;;;;;;;14.27;100.00;100762.22;4988149;30;20045;-70
2022/09/10 06:44:40;;;;;;;52.67;34.73;;;;;;;14.30;100.00;100756.06;4987769;30;20043;-72
2022/09/10 06:47:11;;;;;;;48.93;34.87;;;;;;;14.26;100.00;100757.88;4972198;30;20130;-73
2022/09/10 06:49:43;;;;;;;57.13;35.90;;;;;;;14.32;100.00;100764.72;4987728;30;20054;-73
2022/09/10 06:52:14;;;;;;;54.90;36.63;;;;;;;14.33;100.00;100762.06;4987954;30;20035;-73
2022/09/10 06:54:46;;;;;;;61.63;37.67;;;;;;;14.36;100.00;100767.22;4988249;30;20035;-72
2022/09/10 06:57:18;;;;;;;50.23;35.90;;;;;;;14.33;100.00;100758.56;4988182;30;20067;-72
2022/09/10 06:59:49;;;;;;;53.53;36.30;;;;;;;14.35;100.00;100767.25;4987751;30;20031;-73
2022/09/10 07:02:21;;;;;;;57.33;39.00;;;;;;;14.38;100.00;100768.03;4987921;29;20371;-72
2022/09/10 07:04:52;;;;;;;48.83;37.03;;;;;;;14.35;100.00;100768.13;4986954;30;20498;-72
2022/09/10 07:07:23;;;;;;;50.70;36.10;;;;;;;14.36;100.00;100758.47;4971258;30;20081;-72
2022/09/10 07:09:55;;;;;;;59.83;37.77;;;;;;;14.43;100.00;100770.53;4987762;30;20043;-71
2022/09/10 07:12:26;;;;;;;54.73;36.03;;;;;;;14.43;100.00;100770.53;4987826;30;20034;-73
2022/09/10 07:14:57;;;;;;;43.60;32.67;;;;;;;14.43;100.00;100767.91;4987193;30;20046;-70
2022/09/10 07:17:29;;;;;;;47.70;34.30;;;;;;;14.43;100.00;100764.44;4987760;30;20035;-71
2022/09/10 07:20:00;;;;;;;37.53;28.87;;;;;;;14.42;100.00;100766.16;4987860;30;20039;-71
2022/09/10 07:22:31;;;;;;;40.30;29.83;;;;;;;14.47;100.00;100771.28;4987639;30;20479;-72
2022/09/10 07:25:03;;;;;;;35.63;28.73;;;;;;;14.44;100.00;100785.38;4971821;30;20051;-70
2022/09/10 07:27:35;;;;;;;39.10;30.53;;;;;;;14.42;100.00;100784.53;4987664;30;20071;-70
2022/09/10 07:30:06;;;;;;;39.53;30.27;;;;;;;14.40;100.00;100789.81;4987658;30;20345;-71
2022/09/10 07:32:39;;;;;;;41.45;31.52;;;;;;;14.42;100.00;100789.78;4971350;30;20125;-71
2022/09/10 07:35:10;;;;;;;38.20;30.85;;;;;;;14.45;100.00;100789.69;4987402;30;20089;-72
2022/09/10 07:37:44;;;;;;;41.57;31.90;;;;;;;14.53;100.00;100790.31;4987526;30;20067;-70
2022/09/10 07:40:15;;;;;;;42.10;32.00;;;;;;;14.56;100.00;100790.22;4971400;30;20035;-71
2022/09/10 07:42:47;;;;;;;41.63;32.83;;;;;;;14.63;100.00;100787.47;4971935;30;20039;-71
2022/09/10 07:45:18;;;;;;;38.97;31.83;;;;;;;14.65;100.00;100790.91;4987426;30;20088;-70
2022/09/10 07:47:50;;;;;;;38.13;32.73;;;;;;;14.67;100.00;100794.34;4987496;30;20039;-70
2022/09/10 07:50:21;;;;;;;36.53;31.80;;;;;;;14.71;100.00;100785.47;4987594;30;20084;-70
2022/09/10 07:52:52;;;;;;;46.20;35.30;;;;;;;14.78;100.00;100789.66;4987576;30;20039;-71
2022/09/10 07:55:24;;;;;;;42.03;33.90;;;;;;;14.84;100.00;100796.47;4987349;30;20065;-70
2022/09/10 07:57:56;;;;;;;39.97;34.58;;;;;;;14.76;100.00;100800.19;4987165;30;20043;-71
2022/09/10 08:00:28;;;;;;;38.47;33.33;;;;;;;14.82;100.00;100804.38;4987410;30;20039;-71
2022/09/10 08:02:59;;;;;;;38.78;32.90;;;;;;;14.81;100.00;100813.16;4987849;30;20086;-71
2022/09/10 08:05:31;;;;;;;40.37;34.67;;;;;;;14.90;100.00;100822.53;4970887;30;20035;-71
2022/09/10 08:08:02;;;;;;;42.27;35.10;;;;;;;15.01;100.00;100814.34;4987521;30;20035;-72
2022/09/10 08:10:33;;;;;;;38.90;33.43;;;;;;;14.99;100.00;100814.38;4987047;30;20035;-72
2022/09/10 08:13:05;;;;;;;37.70;32.50;;;;;;;15.08;100.00;100810.59;4970837;30;20140;-70
2022/09/10 08:15:43;;;;;;;36.35;32.70;;;;;;;15.12;100.00;100818.31;4986474;29;20074;-71
2022/09/10 08:18:14;;;;;;;36.28;32.40;;;;;;;15.12;100.00;100823.59;4987116;30;20035;-69
2022/09/10 08:20:53;;;;;;;34.83;30.92;;;;;;;15.16;100.00;100815.63;4987770;30;20055;-71
2022/09/10 08:23:24;;;;;;;35.13;30.65;;;;;;;15.18;100.00;100829.53;4986973;30;20507;-70
2022/09/10 08:25:57;;;;;;;32.10;28.83;;;;;;;15.08;100.00;100831.59;4986612;30;20047;-69
2022/09/10 08:28:28;;;;;;;34.85;31.50;;;;;;;15.16;100.00;100837.47;4986997;30;20132;-71
2022/09/10 08:31:08;;;;;;;36.07;29.57;;;;;;;15.14;100.00;100842.75;4986921;30;20532;-69
2022/09/10 08:33:39;;;;;;;33.50;30.02;;;;;;;15.23;100.00;100843.38;4986931;30;20102;-70
2022/09/10 08:36:12;;;;;;;29.87;26.90;;;;;;;15.30;100.00;100843.16;4970693;30;20114;-70
2022/09/10 08:38:45;;;;;;;30.65;27.65;;;;;;;15.35;100.00;100850.88;4986425;30;20041;-70
2022/09/10 08:41:20;;;;;;;;;;;;;;;15.39;100.00;100854.25;4987045;30;20100;-70
2022/09/10 08:43:57;;;;;;;27.80;24.90;;;;;;;15.40;100.00;100854.22;4987113;30;20312;-69
2022/09/10 08:46:34;;;;;;;26.90;24.10;;;;;;;15.54;100.00;100856.41;4986382;30;20044;-70
2022/09/10 08:49:13;;;;;;;23.95;21.80;;;;;;;15.53;100.00;100861.72;4986893;30;20500;-71
2022/09/10 08:51:48;;;;;;;24.08;21.67;;;;;;;15.54;100.00;100868.69;4986387;30;20379;-70
2022/09/10 08:54:25;;;;;;;22.38;20.33;;;;;;;15.56;100.00;100869.50;4985993;30;20092;-70
2022/09/10 08:56:59;;;;;;;21.25;19.15;;;;;;;15.49;100.00;100869.69;4986499;30;20430;-69
2022/09/10 08:59:36;;;;;;;22.25;20.20;;;;;;;15.56;100.00;100874.75;4986313;30;20047;-71
2022/09/10 09:02:30;;;;;;;21.77;19.58;;;;;;;15.39;100.00;100867.41;4986152;30;20039;-69
2022/09/10 09:05:11;;;;;;;22.27;20.23;;;;;;;15.40;100.00;100877.84;4986450;30;20531;-69
2022/09/10 09:07:43;;;;;;;23.25;20.25;;;;;;;15.26;100.00;100878.31;4986305;30;20445;-69
2022/09/10 09:10:19;;;;;;;25.33;22.63;;;;;;;15.24;100.00;100882.72;4986087;30;20050;-71
2022/09/10 09:13:28;;;;;;;26.15;23.45;;;;;;;15.20;100.00;100881.13;4986347;30;20122;-70
2022/09/10 09:16:33;;;;;;;27.65;24.35;;;;;;;15.25;100.00;100878.34;4986367;30;20091;-70
2022/09/10 09:19:24;;;;;;;31.73;26.77;;;;;;;15.36;100.00;100878.00;4986050;30;20114;-70
2022/09/10 09:22:02;;;;;;;30.83;27.40;;;;;;;15.37;100.00;100880.59;4985824;30;20073;-72
2022/09/10 09:24:57;;;;;;;32.60;27.65;;;;;;;15.53;100.00;100880.09;4986257;30;20100;-71
2022/09/10 09:27:37;;;;;;;35.22;27.73;;;;;;;15.58;100.00;100884.28;4985800;30;20493;-70
2022/09/10 09:30:18;;;;;;;32.42;28.63;;;;;;;15.57;100.00;100887.84;4985949;30;20365;-70
2022/09/10 09:32:50;;;;;;;31.10;28.00;;;;;;;15.44;100.00;100881.25;4969712;30;20038;-69
2022/09/10 09:35:31;;;;;;;32.17;28.75;;;;;;;15.60;100.00;100890.38;4985874;30;20039;-70
2022/09/10 09:38:05;;;;;;;32.22;29.02;;;;;;;15.68;100.00;100887.47;4985743;30;20039;-69
2022/09/10 09:40:39;;;;;;;30.25;27.42;;;;;;;15.75;100.00;100890.78;4986096;30;20031;-69
2022/09/10 09:43:32;;;;;;;30.42;27.48;;;;;;;16.09;100.00;100889.69;4985415;30;20045;-70
2022/09/10 09:46:12;;;;;;;;;;;;;;;16.30;100.00;100891.56;4986330;30;20047;-70
2022/09/10 09:48:45;;;;;;;28.02;24.73;;;;;;;16.15;100.00;100885.09;4986132;30;19913;-70
2022/09/10 09:51:20;;;;;;;27.30;24.48;;;;;;;16.16;100.00;100889.41;4985219;30;20129;-70
2022/09/10 09:53:59;;;;;;;26.48;23.80;;;;;;;16.16;100.00;100885.94;4985040;30;20035;-70
2022/09/10 09:56:36;;;;;;;22.85;20.67;;;;;;;15.95;100.00;100888.38;4985896;30;20031;-70
2022/09/10 09:59:22;;;;;;;23.92;21.27;;;;;;;15.95;100.00;100888.38;4985985;30;20142;-71
2022/09/10 10:02:22;;;;;;;21.67;19.38;;;;;;;15.83;100.00;100886.19;4969380;30;20126;-69
2022/09/10 10:05:24;;;;;;;22.88;20.48;;;;;;;15.82;100.00;100887.94;4981753;30;20543;-69
2022/09/10 10:07:55;;;;;;;26.90;23.08;;;;;;;16.02;100.00;100886.44;4985822;30;20422;-71
2022/09/10 10:10:27;;;;;;;27.53;24.67;;;;;;;16.04;100.00;100892.47;4985097;30;20092;-70
2022/09/10 10:12:58;;;;;;;25.40;22.87;;;;;;;16.11;100.00;100885.25;4984991;30;20039;-70
2022/09/10 10:15:41;;;;;;;28.73;25.67;;;;;;;16.19;100.00;100891.94;4985581;30;20104;-70
2022/09/10 10:18:21;;;;;;;26.35;23.80;;;;;;;16.23;100.00;100914.59;4984905;30;20027;-69
2022/09/10 10:21:13;;;;;;;23.52;21.08;;;;;;;16.19;100.00;100912.97;4985372;30;20541;-71
2022/09/10 10:23:45;;;;;;;21.80;19.53;;;;;;;16.33;100.00;100904.63;4985500;30;20341;-69
2022/09/10 10:26:19;;;;;;;21.27;18.88;;;;;;;16.39;100.00;100900.94;4984984;30;20049;-68
2022/09/10 10:28:57;;;;;;;23.70;19.42;;;;;;;16.78;100.00;100906.53;4984741;30;20039;-69
2022/09/10 10:31:40;;;;;;;19.95;17.88;;;;;;;16.88;100.00;100903.59;4969355;30;20035;-70
2022/09/10 10:34:36;;;;;;;16.95;14.85;;;;;;;16.82;100.00;100899.38;4985351;30;20031;-70
2022/09/10 10:37:55;;;;;;;20.83;15.88;;;;;;;16.82;100.00;100902.00;4985448;29;20031;-70
2022/09/10 10:40:36;;;;;;;16.02;14.45;;;;;;;16.61;100.00;100900.16;4963400;30;20051;-71
2022/09/10 10:43:17;;;;;;;15.98;14.15;;;;;;;16.61;100.00;100903.63;4988034;30;20383;-71
2022/09/10 10:45:58;;;;;;;17.73;14.70;;;;;;;16.54;100.00;100916.16;4988384;30;20028;-71
2022/09/10 10:48:42;;;;;;;14.23;12.90;;;;;;;16.75;100.00;100921.56;4988278;30;20043;-70
2022/09/10 10:51:31;;;;;;;15.07;11.27;;;;;;;16.80;100.00;100918.78;4988221;30;20184;-71
2022/09/10 10:54:17;;;;;;;12.20;10.45;;;;;;;16.78;100.00;100913.56;4988562;30;20035;-71
2022/09/10 10:56:58;;;;;;;12.57;10.73;;;;;;;16.73;100.00;100912.88;4988107;30;20043;-71
2022/09/10 10:59:49;;;;;;;17.17;11.57;;;;;;;16.71;100.00;100926.09;4987638;30;20032;-70
2022/09/10 11:02:37;;;;;;;15.07;10.60;;;;;;;16.62;100.00;100931.69;4988325;30;20062;-70
2022/09/10 11:05:33;;;;;;;16.92;12.00;;;;;;;16.68;100.00;100928.84;4988187;30;20479;-71
2022/09/10 11:08:10;;;;;;;15.43;10.88;;;;;;;16.55;100.00;100925.78;4987720;30;20035;-70
2022/09/10 11:10:49;;;;;;;14.98;11.18;;;;;;;16.44;100.00;100919.16;4988162;30;20536;-69
2022/09/10 11:13:30;;;;;;;14.93;10.30;;;;;;;16.37;100.00;100916.78;4987874;30;20122;-71
2022/09/10 11:16:08;;;;;;;14.18;10.80;;;;;;;16.31;100.00;100911.72;4987646;30;20046;-71
2022/09/10 11:18:48;;;;;;;15.18;12.98;;;;;;;16.30;100.00;100923.16;4988274;30;20466;-70
2022/09/10 11:21:44;;;;;;;18.15;12.02;;;;;;;16.21;100.00;100937.47;4971197;30;20086;-70
2022/09/10 11:24:30;;;;;;;19.30;13.95;;;;;;;16.28;100.00;100927.59;4987502;30;20091;-71
2022/09/10 11:27:27;;;;;;;18.50;13.75;;;;;;;16.17;100.00;100929.75;4987986;30;20042;-70
2022/09/10 11:30:10;;;;;;;24.17;14.60;;;;;;;16.15;100.00;100931.56;4988140;30;20031;-70
2022/09/10 11:33:03;;;;;;;;;;;;;;;16.11;100.00;100924.69;4988864;30;20032;-71
2022/09/10 11:35:41;;;;;;;;;;;;;;;16.13;100.00;100926.38;4988272;30;19917;-71
2022/09/10 11:38:26;;;;;;;17.23;12.98;;;;;;;16.05;100.00;100933.63;4987822;30;20330;-71
2022/09/10 11:41:21;;;;;;;19.42;13.60;;;;;;;15.97;100.00;100938.28;4987901;30;20096;-70
2022/09/10 11:44:21;;;;;;;20.33;16.08;;;;;;;16.07;100.00;100949.34;4988027;30;20039;-71